sensor_id;sensor_type;location;lat;lon;timestamp;temperature;humidity
2663;DHT22;49701;48.072;7.800;2024-03-08T00:02:06;2.00;99.90
2663;DHT22;49701;48.072;7.800;2024-03-08T00:04:32;1.90;99.90
2663;DHT22;49701;48.072;7.800;2024-03-08T00:06:58;1.90;99.90
2663;DHT22;49701;48.072;7.800;2024-03-08T00:09:23;1.90;99.90
2663;DHT22;49701;48.072;7.800;2024-03-08T00:11:49;1.90;99.90
2663;DHT22;49701;48.072;7.800;2024-03-08T00:14:15;1.80;99.90
2663;DHT22;49701;48.072;7.800;2024-03-08T00:16:41;1.90;99.90
2663;DHT22;49701;48.072;7.800;2024-03-08T00:19:09;1.80;99.90
2663;DHT22;49701;48.072;7.800;2024-03-08T00:21:34;1.80;99.90
2663;DHT22;49701;48.072;7.800;2024-03-08T00:24:01;1.80;99.90
2663;DHT22;49701;48.072;7.800;2024-03-08T00:26:26;1.80;99.90
2663;DHT22;49701;48.072;7.800;2024-03-08T00:28:52;1.70;99.90
2663;DHT22;49701;48.072;7.800;2024-03-08T00:31:19;1.70;99.90
2663;DHT22;49701;48.072;7.800;2024-03-08T00:33:45;1.60;99.90
2663;DHT22;49701;48.072;7.800;2024-03-08T00:36:11;1.60;99.90
2663;DHT22;49701;48.072;7.800;2024-03-08T00:38:37;1.60;99.90
2663;DHT22;49701;48.072;7.800;2024-03-08T00:41:02;1.60;99.90
2663;DHT22;49701;48.072;7.800;2024-03-08T00:43:28;1.50;99.90
2663;DHT22;49701;48.072;7.800;2024-03-08T00:45:55;1.50;99.90
2663;DHT22;49701;48.072;7.800;2024-03-08T00:48:21;1.50;99.90
2663;DHT22;49701;48.072;7.800;2024-03-08T00:50:46;1.50;99.90
2663;DHT22;49701;48.072;7.800;2024-03-08T00:53:12;1.40;99.90
2663;DHT22;49701;48.072;7.800;2024-03-08T00:55:38;1.40;99.90
2663;DHT22;49701;48.072;7.800;2024-03-08T00:58:04;1.40;99.90
2663;DHT22;49701;48.072;7.800;2024-03-08T01:00:29;1.40;99.90
2663;DHT22;49701;48.072;7.800;2024-03-08T01:02:55;1.30;99.90
2663;DHT22;49701;48.072;7.800;2024-03-08T01:05:21;1.30;99.90
2663;DHT22;49701;48.072;7.800;2024-03-08T01:07:49;1.30;99.90
2663;DHT22;49701;48.072;7.800;2024-03-08T01:10:15;1.20;99.90
2663;DHT22;49701;48.072;7.800;2024-03-08T01:12:40;1.20;99.90
2663;DHT22;49701;48.072;7.800;2024-03-08T01:15:10;1.20;99.90
2663;DHT22;49701;48.072;7.800;2024-03-08T01:17:36;1.20;99.90
2663;DHT22;49701;48.072;7.800;2024-03-08T01:20:02;1.10;99.90
2663;DHT22;49701;48.072;7.800;2024-03-08T01:22:28;1.20;99.90
2663;DHT22;49701;48.072;7.800;2024-03-08T01:24:55;1.10;99.90
2663;DHT22;49701;48.072;7.800;2024-03-08T01:27:21;1.10;99.90
2663;DHT22;49701;48.072;7.800;2024-03-08T01:29:47;1.10;99.90
2663;DHT22;49701;48.072;7.800;2024-03-08T01:32:13;1.10;99.90
2663;DHT22;49701;48.072;7.800;2024-03-08T01:34:38;1.10;99.90
2663;DHT22;49701;48.072;7.800;2024-03-08T01:37:04;1.00;99.90
2663;DHT22;49701;48.072;7.800;2024-03-08T01:39:30;1.00;99.90
2663;DHT22;49701;48.072;7.800;2024-03-08T01:41:55;1.00;99.90
2663;DHT22;49701;48.072;7.800;2024-03-08T01:44:21;0.90;99.90
2663;DHT22;49701;48.072;7.800;2024-03-08T01:46:47;1.00;99.90
2663;DHT22;49701;48.072;7.800;2024-03-08T01:49:13;0.90;99.90
2663;DHT22;49701;48.072;7.800;2024-03-08T01:51:40;0.90;99.90
2663;DHT22;49701;48.072;7.800;2024-03-08T01:54:07;0.90;99.90
2663;DHT22;49701;48.072;7.800;2024-03-08T01:56:36;0.80;99.90
2663;DHT22;49701;48.072;7.800;2024-03-08T01:59:03;0.80;99.90
2663;DHT22;49701;48.072;7.800;2024-03-08T02:01:29;0.80;99.90
2663;DHT22;49701;48.072;7.800;2024-03-08T02:03:54;0.80;99.90
2663;DHT22;49701;48.072;7.800;2024-03-08T02:06:20;0.80;99.90
2663;DHT22;49701;48.072;7.800;2024-03-08T02:08:45;0.80;99.90
2663;DHT22;49701;48.072;7.800;2024-03-08T02:11:12;0.70;99.90
2663;DHT22;49701;48.072;7.800;2024-03-08T02:13:37;0.70;99.90
2663;DHT22;49701;48.072;7.800;2024-03-08T02:16:03;0.70;99.90
2663;DHT22;49701;48.072;7.800;2024-03-08T02:18:30;0.70;99.90
2663;DHT22;49701;48.072;7.800;2024-03-08T02:20:56;0.70;99.90
2663;DHT22;49701;48.072;7.800;2024-03-08T02:23:22;0.70;99.90
2663;DHT22;49701;48.072;7.800;2024-03-08T02:25:48;0.60;99.90
2663;DHT22;49701;48.072;7.800;2024-03-08T02:28:14;0.60;99.90
2663;DHT22;49701;48.072;7.800;2024-03-08T02:30:40;0.60;99.90
2663;DHT22;49701;48.072;7.800;2024-03-08T02:33:06;0.60;99.90
2663;DHT22;49701;48.072;7.800;2024-03-08T02:35:33;0.50;99.90
2663;DHT22;49701;48.072;7.800;2024-03-08T02:38:01;0.50;99.90
2663;DHT22;49701;48.072;7.800;2024-03-08T02:40:29;0.50;99.90
2663;DHT22;49701;48.072;7.800;2024-03-08T02:42:54;0.50;99.90
2663;DHT22;49701;48.072;7.800;2024-03-08T02:45:20;0.50;99.90
2663;DHT22;49701;48.072;7.800;2024-03-08T02:47:46;0.50;99.90
2663;DHT22;49701;48.072;7.800;2024-03-08T02:50:11;0.40;99.90
2663;DHT22;49701;48.072;7.800;2024-03-08T02:52:37;0.40;99.90
2663;DHT22;49701;48.072;7.800;2024-03-08T02:55:03;0.40;99.90
2663;DHT22;49701;48.072;7.800;2024-03-08T02:57:31;0.40;99.90
2663;DHT22;49701;48.072;7.800;2024-03-08T02:59:57;0.40;99.90
2663;DHT22;49701;48.072;7.800;2024-03-08T03:02:25;0.40;99.90
2663;DHT22;49701;48.072;7.800;2024-03-08T03:04:52;0.30;99.90
2663;DHT22;49701;48.072;7.800;2024-03-08T03:07:17;0.40;99.90
2663;DHT22;49701;48.072;7.800;2024-03-08T03:09:43;0.40;99.90
2663;DHT22;49701;48.072;7.800;2024-03-08T03:12:09;0.30;99.90
2663;DHT22;49701;48.072;7.800;2024-03-08T03:14:37;0.30;99.90
2663;DHT22;49701;48.072;7.800;2024-03-08T03:17:06;0.30;99.90
2663;DHT22;49701;48.072;7.800;2024-03-08T03:19:31;0.30;99.90
2663;DHT22;49701;48.072;7.800;2024-03-08T03:21:57;0.30;99.90
2663;DHT22;49701;48.072;7.800;2024-03-08T03:24:22;0.20;99.90
2663;DHT22;49701;48.072;7.800;2024-03-08T03:26:49;0.30;99.90
2663;DHT22;49701;48.072;7.800;2024-03-08T03:29:15;0.20;99.90
2663;DHT22;49701;48.072;7.800;2024-03-08T03:31:42;0.20;99.90
2663;DHT22;49701;48.072;7.800;2024-03-08T03:34:11;0.20;99.90
2663;DHT22;49701;48.072;7.800;2024-03-08T03:36:37;0.20;99.90
2663;DHT22;49701;48.072;7.800;2024-03-08T03:39:08;0.10;99.90
2663;DHT22;49701;48.072;7.800;2024-03-08T03:41:38;0.10;99.90
2663;DHT22;49701;48.072;7.800;2024-03-08T03:44:04;0.10;99.90
2663;DHT22;49701;48.072;7.800;2024-03-08T03:46:32;0.10;99.90
2663;DHT22;49701;48.072;7.800;2024-03-08T03:48:58;0.10;99.90
2663;DHT22;49701;48.072;7.800;2024-03-08T03:51:24;0.10;99.90
2663;DHT22;49701;48.072;7.800;2024-03-08T03:53:50;0.00;99.90
2663;DHT22;49701;48.072;7.800;2024-03-08T03:56:15;0.00;99.90
2663;DHT22;49701;48.072;7.800;2024-03-08T03:58:41;0.10;99.90
2663;DHT22;49701;48.072;7.800;2024-03-08T04:01:07;0.00;99.90
2663;DHT22;49701;48.072;7.800;2024-03-08T04:03:35;0.00;99.90
2663;DHT22;49701;48.072;7.800;2024-03-08T04:06:00;0.00;99.90
2663;DHT22;49701;48.072;7.800;2024-03-08T04:08:27;0.00;99.90
2663;DHT22;49701;48.072;7.800;2024-03-08T04:10:52;0.00;99.90
2663;DHT22;49701;48.072;7.800;2024-03-08T04:13:18;0.00;99.90
2663;DHT22;49701;48.072;7.800;2024-03-08T04:15:45;-0.10;99.90
2663;DHT22;49701;48.072;7.800;2024-03-08T04:18:13;-0.10;99.90
2663;DHT22;49701;48.072;7.800;2024-03-08T04:20:39;-0.10;99.90
2663;DHT22;49701;48.072;7.800;2024-03-08T04:23:05;-0.10;99.90
2663;DHT22;49701;48.072;7.800;2024-03-08T04:25:31;-0.10;99.90
2663;DHT22;49701;48.072;7.800;2024-03-08T04:27:56;-0.10;99.90
2663;DHT22;49701;48.072;7.800;2024-03-08T04:30:22;-0.10;99.90
2663;DHT22;49701;48.072;7.800;2024-03-08T04:32:48;-0.10;99.90
2663;DHT22;49701;48.072;7.800;2024-03-08T04:35:14;-0.10;99.90
2663;DHT22;49701;48.072;7.800;2024-03-08T04:37:40;-0.20;99.90
2663;DHT22;49701;48.072;7.800;2024-03-08T04:40:06;-0.10;99.90
2663;DHT22;49701;48.072;7.800;2024-03-08T04:42:32;-0.10;99.90
2663;DHT22;49701;48.072;7.800;2024-03-08T04:45:00;-0.10;99.90
2663;DHT22;49701;48.072;7.800;2024-03-08T04:47:26;-0.10;99.90
2663;DHT22;49701;48.072;7.800;2024-03-08T04:49:52;-0.10;99.90
2663;DHT22;49701;48.072;7.800;2024-03-08T04:52:18;-0.10;99.90
2663;DHT22;49701;48.072;7.800;2024-03-08T04:54:44;-0.10;99.90
2663;DHT22;49701;48.072;7.800;2024-03-08T04:57:10;-0.10;99.90
2663;DHT22;49701;48.072;7.800;2024-03-08T04:59:36;-0.10;99.90
2663;DHT22;49701;48.072;7.800;2024-03-08T05:02:02;-0.10;99.90
2663;DHT22;49701;48.072;7.800;2024-03-08T05:04:27;-0.10;99.90
2663;DHT22;49701;48.072;7.800;2024-03-08T05:06:54;-0.20;99.90
2663;DHT22;49701;48.072;7.800;2024-03-08T05:09:20;-0.20;99.90
2663;DHT22;49701;48.072;7.800;2024-03-08T05:11:46;-0.20;99.90
2663;DHT22;49701;48.072;7.800;2024-03-08T05:14:12;-0.20;99.90
2663;DHT22;49701;48.072;7.800;2024-03-08T05:16:42;-0.20;99.90
2663;DHT22;49701;48.072;7.800;2024-03-08T05:19:08;-0.20;99.90
2663;DHT22;49701;48.072;7.800;2024-03-08T05:21:33;-0.20;99.90
2663;DHT22;49701;48.072;7.800;2024-03-08T05:23:59;-0.20;99.90
2663;DHT22;49701;48.072;7.800;2024-03-08T05:26:25;-0.20;99.90
2663;DHT22;49701;48.072;7.800;2024-03-08T05:28:50;-0.30;99.90
2663;DHT22;49701;48.072;7.800;2024-03-08T05:31:19;-0.30;99.90
2663;DHT22;49701;48.072;7.800;2024-03-08T05:33:47;-0.30;99.90
2663;DHT22;49701;48.072;7.800;2024-03-08T05:36:13;-0.10;99.90
2663;DHT22;49701;48.072;7.800;2024-03-08T05:38:40;0.10;99.90
2663;DHT22;49701;48.072;7.800;2024-03-08T05:41:07;0.20;99.90
2663;DHT22;49701;48.072;7.800;2024-03-08T05:43:33;0.20;99.90
2663;DHT22;49701;48.072;7.800;2024-03-08T05:45:58;0.10;99.90
2663;DHT22;49701;48.072;7.800;2024-03-08T05:48:24;0.10;99.90
2663;DHT22;49701;48.072;7.800;2024-03-08T05:50:50;0.00;99.90
2663;DHT22;49701;48.072;7.800;2024-03-08T05:53:16;0.00;99.90
2663;DHT22;49701;48.072;7.800;2024-03-08T05:55:41;0.00;99.90
2663;DHT22;49701;48.072;7.800;2024-03-08T05:58:07;-0.10;99.90
2663;DHT22;49701;48.072;7.800;2024-03-08T06:00:33;-0.10;99.90
2663;DHT22;49701;48.072;7.800;2024-03-08T06:02:59;-0.10;99.90
2663;DHT22;49701;48.072;7.800;2024-03-08T06:05:25;-0.10;99.90
2663;DHT22;49701;48.072;7.800;2024-03-08T06:07:50;-0.20;99.90
2663;DHT22;49701;48.072;7.800;2024-03-08T06:10:18;-0.20;99.90
2663;DHT22;49701;48.072;7.800;2024-03-08T06:12:44;-0.20;99.90
2663;DHT22;49701;48.072;7.800;2024-03-08T06:15:10;-0.20;99.90
2663;DHT22;49701;48.072;7.800;2024-03-08T06:17:40;-0.20;99.90
2663;DHT22;49701;48.072;7.800;2024-03-08T06:20:06;-0.10;99.90
2663;DHT22;49701;48.072;7.800;2024-03-08T06:22:38;-0.10;99.90
2663;DHT22;49701;48.072;7.800;2024-03-08T06:25:07;-0.10;99.90
2663;DHT22;49701;48.072;7.800;2024-03-08T06:27:33;0.00;99.90
2663;DHT22;49701;48.072;7.800;2024-03-08T06:29:59;0.10;99.90
2663;DHT22;49701;48.072;7.800;2024-03-08T06:32:25;0.10;99.90
2663;DHT22;49701;48.072;7.800;2024-03-08T06:34:50;0.20;99.90
2663;DHT22;49701;48.072;7.800;2024-03-08T06:37:16;0.30;99.90
2663;DHT22;49701;48.072;7.800;2024-03-08T06:39:49;0.40;99.90
2663;DHT22;49701;48.072;7.800;2024-03-08T06:42:16;0.60;99.90
2663;DHT22;49701;48.072;7.800;2024-03-08T06:44:42;0.70;99.90
2663;DHT22;49701;48.072;7.800;2024-03-08T06:47:14;0.80;99.90
2663;DHT22;49701;48.072;7.800;2024-03-08T06:49:41;1.00;99.90
2663;DHT22;49701;48.072;7.800;2024-03-08T06:52:06;1.10;99.90
2663;DHT22;49701;48.072;7.800;2024-03-08T06:54:34;1.30;99.90
2663;DHT22;49701;48.072;7.800;2024-03-08T06:57:04;1.50;99.90
2663;DHT22;49701;48.072;7.800;2024-03-08T06:59:30;1.70;99.90
2663;DHT22;49701;48.072;7.800;2024-03-08T07:01:56;1.90;99.90
2663;DHT22;49701;48.072;7.800;2024-03-08T07:04:22;2.10;99.90
2663;DHT22;49701;48.072;7.800;2024-03-08T07:06:51;2.40;99.90
2663;DHT22;49701;48.072;7.800;2024-03-08T07:09:17;2.60;99.90
2663;DHT22;49701;48.072;7.800;2024-03-08T07:11:43;2.80;99.90
2663;DHT22;49701;48.072;7.800;2024-03-08T07:14:09;3.10;99.90
2663;DHT22;49701;48.072;7.800;2024-03-08T07:16:34;3.30;99.90
2663;DHT22;49701;48.072;7.800;2024-03-08T07:19:04;3.50;99.90
2663;DHT22;49701;48.072;7.800;2024-03-08T07:21:30;3.70;99.90
2663;DHT22;49701;48.072;7.800;2024-03-08T07:23:56;3.90;99.90
2663;DHT22;49701;48.072;7.800;2024-03-08T07:26:25;4.10;99.90
2663;DHT22;49701;48.072;7.800;2024-03-08T07:28:51;4.30;99.90
2663;DHT22;49701;48.072;7.800;2024-03-08T07:31:16;4.50;99.90
2663;DHT22;49701;48.072;7.800;2024-03-08T07:33:42;4.70;99.90
2663;DHT22;49701;48.072;7.800;2024-03-08T07:36:07;4.90;99.90
2663;DHT22;49701;48.072;7.800;2024-03-08T07:38:33;5.00;99.90
2663;DHT22;49701;48.072;7.800;2024-03-08T07:40:59;5.20;99.90
2663;DHT22;49701;48.072;7.800;2024-03-08T07:43:25;5.40;99.90
2663;DHT22;49701;48.072;7.800;2024-03-08T07:45:50;5.50;99.90
2663;DHT22;49701;48.072;7.800;2024-03-08T07:48:18;5.70;99.90
2663;DHT22;49701;48.072;7.800;2024-03-08T07:50:43;5.80;99.90
2663;DHT22;49701;48.072;7.800;2024-03-08T07:53:09;6.00;99.90
2663;DHT22;49701;48.072;7.800;2024-03-08T07:55:35;6.10;99.90
2663;DHT22;49701;48.072;7.800;2024-03-08T07:58:01;6.20;99.90
2663;DHT22;49701;48.072;7.800;2024-03-08T08:00:28;6.30;99.90
2663;DHT22;49701;48.072;7.800;2024-03-08T08:02:55;6.50;99.90
2663;DHT22;49701;48.072;7.800;2024-03-08T08:05:21;6.60;99.90
2663;DHT22;49701;48.072;7.800;2024-03-08T08:07:47;6.80;99.90
2663;DHT22;49701;48.072;7.800;2024-03-08T08:10:12;7.00;99.90
2663;DHT22;49701;48.072;7.800;2024-03-08T08:12:47;7.20;99.90
2663;DHT22;49701;48.072;7.800;2024-03-08T08:15:12;7.40;99.90
2663;DHT22;49701;48.072;7.800;2024-03-08T08:17:38;7.70;99.90
2663;DHT22;49701;48.072;7.800;2024-03-08T08:20:04;7.80;99.90
2663;DHT22;49701;48.072;7.800;2024-03-08T08:22:31;8.00;99.90
2663;DHT22;49701;48.072;7.800;2024-03-08T08:24:56;8.10;99.90
2663;DHT22;49701;48.072;7.800;2024-03-08T08:27:22;8.30;99.90
2663;DHT22;49701;48.072;7.800;2024-03-08T08:29:47;8.30;99.90
2663;DHT22;49701;48.072;7.800;2024-03-08T08:32:15;8.20;99.90
2663;DHT22;49701;48.072;7.800;2024-03-08T08:34:40;8.40;99.90
2663;DHT22;49701;48.072;7.800;2024-03-08T08:37:07;8.60;99.90
2663;DHT22;49701;48.072;7.800;2024-03-08T08:39:35;9.00;99.90
2663;DHT22;49701;48.072;7.800;2024-03-08T08:42:02;9.40;99.90
2663;DHT22;49701;48.072;7.800;2024-03-08T08:44:28;9.80;99.90
2663;DHT22;49701;48.072;7.800;2024-03-08T08:46:53;10.10;99.90
2663;DHT22;49701;48.072;7.800;2024-03-08T08:49:19;10.10;99.90
2663;DHT22;49701;48.072;7.800;2024-03-08T08:51:51;10.20;99.90
2663;DHT22;49701;48.072;7.800;2024-03-08T08:54:17;10.30;99.90
2663;DHT22;49701;48.072;7.800;2024-03-08T08:56:43;10.60;99.90
2663;DHT22;49701;48.072;7.800;2024-03-08T08:59:12;10.60;99.90
2663;DHT22;49701;48.072;7.800;2024-03-08T09:01:39;10.90;99.90
2663;DHT22;49701;48.072;7.800;2024-03-08T09:04:05;11.30;99.90
2663;DHT22;49701;48.072;7.800;2024-03-08T09:06:31;11.60;99.90
2663;DHT22;49701;48.072;7.800;2024-03-08T09:08:57;11.90;99.90
2663;DHT22;49701;48.072;7.800;2024-03-08T09:11:23;12.30;99.90
2663;DHT22;49701;48.072;7.800;2024-03-08T09:13:50;12.60;99.90
2663;DHT22;49701;48.072;7.800;2024-03-08T09:16:16;12.90;99.90
2663;DHT22;49701;48.072;7.800;2024-03-08T09:18:41;12.80;99.90
2663;DHT22;49701;48.072;7.800;2024-03-08T09:21:07;12.90;99.90
2663;DHT22;49701;48.072;7.800;2024-03-08T09:23:36;13.20;99.90
2663;DHT22;49701;48.072;7.800;2024-03-08T09:26:02;13.60;99.90
2663;DHT22;49701;48.072;7.800;2024-03-08T09:28:29;13.70;99.90
2663;DHT22;49701;48.072;7.800;2024-03-08T09:30:55;13.80;99.90
2663;DHT22;49701;48.072;7.800;2024-03-08T09:33:20;14.00;99.90
2663;DHT22;49701;48.072;7.800;2024-03-08T09:35:46;13.90;99.90
2663;DHT22;49701;48.072;7.800;2024-03-08T09:38:12;13.40;99.90
2663;DHT22;49701;48.072;7.800;2024-03-08T09:40:41;13.40;99.90
2663;DHT22;49701;48.072;7.800;2024-03-08T09:43:07;13.70;99.90
2663;DHT22;49701;48.072;7.800;2024-03-08T09:45:35;14.00;99.90
2663;DHT22;49701;48.072;7.800;2024-03-08T09:48:02;14.00;99.90
2663;DHT22;49701;48.072;7.800;2024-03-08T09:50:27;14.10;99.90
2663;DHT22;49701;48.072;7.800;2024-03-08T09:52:54;14.30;99.90
2663;DHT22;49701;48.072;7.800;2024-03-08T09:55:22;14.30;99.90
2663;DHT22;49701;48.072;7.800;2024-03-08T09:57:48;14.70;99.90
2663;DHT22;49701;48.072;7.800;2024-03-08T10:00:40;15.20;99.90
2663;DHT22;49701;48.072;7.800;2024-03-08T10:03:06;15.30;99.90
2663;DHT22;49701;48.072;7.800;2024-03-08T10:05:31;15.00;99.90
2663;DHT22;49701;48.072;7.800;2024-03-08T10:08:00;14.90;99.90
2663;DHT22;49701;48.072;7.800;2024-03-08T10:10:25;15.20;99.90
2663;DHT22;49701;48.072;7.800;2024-03-08T10:12:51;15.60;99.90
2663;DHT22;49701;48.072;7.800;2024-03-08T10:15:17;15.70;99.90
2663;DHT22;49701;48.072;7.800;2024-03-08T10:17:42;15.90;99.90
2663;DHT22;49701;48.072;7.800;2024-03-08T10:20:15;16.30;99.90
2663;DHT22;49701;48.072;7.800;2024-03-08T10:22:44;16.50;99.90
2663;DHT22;49701;48.072;7.800;2024-03-08T10:25:10;16.70;99.90
2663;DHT22;49701;48.072;7.800;2024-03-08T10:27:36;17.00;99.90
2663;DHT22;49701;48.072;7.800;2024-03-08T10:30:02;17.20;99.90
2663;DHT22;49701;48.072;7.800;2024-03-08T10:32:28;17.50;99.90
2663;DHT22;49701;48.072;7.800;2024-03-08T10:34:53;17.70;99.90
2663;DHT22;49701;48.072;7.800;2024-03-08T10:37:21;17.40;99.50
2663;DHT22;49701;48.072;7.800;2024-03-08T10:39:53;17.00;99.90
2663;DHT22;49701;48.072;7.800;2024-03-08T10:42:24;17.10;99.90
2663;DHT22;49701;48.072;7.800;2024-03-08T10:45:05;17.30;99.90
2663;DHT22;49701;48.072;7.800;2024-03-08T10:47:31;17.40;99.90
2663;DHT22;49701;48.072;7.800;2024-03-08T10:52:29;17.40;99.60
2663;DHT22;49701;48.072;7.800;2024-03-08T10:54:54;17.80;99.00
2663;DHT22;49701;48.072;7.800;2024-03-08T10:57:21;18.20;98.50
2663;DHT22;49701;48.072;7.800;2024-03-08T10:59:49;18.50;97.60
2663;DHT22;49701;48.072;7.800;2024-03-08T11:02:15;18.70;97.10
2663;DHT22;49701;48.072;7.800;2024-03-08T11:04:50;18.80;97.20
2663;DHT22;49701;48.072;7.800;2024-03-08T11:07:16;19.10;96.60
2663;DHT22;49701;48.072;7.800;2024-03-08T11:09:47;19.50;96.60
2663;DHT22;49701;48.072;7.800;2024-03-08T11:12:28;19.80;95.70
2663;DHT22;49701;48.072;7.800;2024-03-08T11:15:01;20.00;94.80
2663;DHT22;49701;48.072;7.800;2024-03-08T11:19:59;19.50;95.60
2663;DHT22;49701;48.072;7.800;2024-03-08T11:22:33;19.90;95.30
2663;DHT22;49701;48.072;7.800;2024-03-08T11:25:02;20.40;94.50
2663;DHT22;49701;48.072;7.800;2024-03-08T11:27:29;20.80;94.00
2663;DHT22;49701;48.072;7.800;2024-03-08T11:30:04;21.10;93.40
2663;DHT22;49701;48.072;7.800;2024-03-08T11:32:37;21.10;93.20
2663;DHT22;49701;48.072;7.800;2024-03-08T11:35:17;21.10;93.00
2663;DHT22;49701;48.072;7.800;2024-03-08T11:37:52;21.10;93.00
2663;DHT22;49701;48.072;7.800;2024-03-08T11:40:18;21.20;92.80
2663;DHT22;49701;48.072;7.800;2024-03-08T11:42:45;21.50;92.30
2663;DHT22;49701;48.072;7.800;2024-03-08T11:45:14;21.10;91.90
2663;DHT22;49701;48.072;7.800;2024-03-08T11:47:44;20.10;93.00
2663;DHT22;49701;48.072;7.800;2024-03-08T11:50:12;19.20;94.00
2663;DHT22;49701;48.072;7.800;2024-03-08T11:52:38;18.70;95.10
2663;DHT22;49701;48.072;7.800;2024-03-08T11:55:04;18.70;95.80
2663;DHT22;49701;48.072;7.800;2024-03-08T11:57:31;19.20;95.20
2663;DHT22;49701;48.072;7.800;2024-03-08T11:59:57;19.70;94.40
2663;DHT22;49701;48.072;7.800;2024-03-08T12:02:24;20.10;94.00
2663;DHT22;49701;48.072;7.800;2024-03-08T12:04:57;20.70;93.40
2663;DHT22;49701;48.072;7.800;2024-03-08T12:07:26;21.20;92.20
2663;DHT22;49701;48.072;7.800;2024-03-08T12:10:14;20.30;92.80
2663;DHT22;49701;48.072;7.800;2024-03-08T12:12:46;20.10;93.60
2663;DHT22;49701;48.072;7.800;2024-03-08T12:15:13;20.40;92.80
2663;DHT22;49701;48.072;7.800;2024-03-08T12:17:39;20.70;92.80
2663;DHT22;49701;48.072;7.800;2024-03-08T12:20:12;21.20;92.20
2663;DHT22;49701;48.072;7.800;2024-03-08T12:22:44;21.50;91.70
2663;DHT22;49701;48.072;7.800;2024-03-08T12:25:13;22.00;90.80
2663;DHT22;49701;48.072;7.800;2024-03-08T12:27:39;22.20;90.50
2663;DHT22;49701;48.072;7.800;2024-03-08T12:30:19;22.40;90.40
2663;DHT22;49701;48.072;7.800;2024-03-08T12:32:54;22.80;88.60
2663;DHT22;49701;48.072;7.800;2024-03-08T12:35:22;23.00;88.10
2663;DHT22;49701;48.072;7.800;2024-03-08T12:37:48;22.90;87.70
2663;DHT22;49701;48.072;7.800;2024-03-08T12:40:14;23.20;87.00
2663;DHT22;49701;48.072;7.800;2024-03-08T12:42:43;23.50;85.80
2663;DHT22;49701;48.072;7.800;2024-03-08T12:45:08;23.80;83.50
2663;DHT22;49701;48.072;7.800;2024-03-08T12:47:35;23.40;82.50
2663;DHT22;49701;48.072;7.800;2024-03-08T12:50:01;22.60;85.50
2663;DHT22;49701;48.072;7.800;2024-03-08T12:52:28;22.30;86.90
2663;DHT22;49701;48.072;7.800;2024-03-08T12:54:55;22.40;86.40
2663;DHT22;49701;48.072;7.800;2024-03-08T12:57:21;22.70;85.50
2663;DHT22;49701;48.072;7.800;2024-03-08T12:59:47;23.10;85.00
2663;DHT22;49701;48.072;7.800;2024-03-08T13:02:15;23.30;83.90
2663;DHT22;49701;48.072;7.800;2024-03-08T13:04:42;23.40;83.60
2663;DHT22;49701;48.072;7.800;2024-03-08T13:07:07;23.50;83.00
2663;DHT22;49701;48.072;7.800;2024-03-08T13:09:33;23.60;82.60
2663;DHT22;49701;48.072;7.800;2024-03-08T13:12:02;23.70;81.90
2663;DHT22;49701;48.072;7.800;2024-03-08T13:14:28;23.70;82.50
2663;DHT22;49701;48.072;7.800;2024-03-08T13:16:57;23.70;81.60
2663;DHT22;49701;48.072;7.800;2024-03-08T13:19:24;23.60;82.00
2663;DHT22;49701;48.072;7.800;2024-03-08T13:21:53;23.60;81.90
2663;DHT22;49701;48.072;7.800;2024-03-08T13:24:19;23.80;80.80
2663;DHT22;49701;48.072;7.800;2024-03-08T13:26:45;23.90;80.60
2663;DHT22;49701;48.072;7.800;2024-03-08T13:29:10;23.90;80.10
2663;DHT22;49701;48.072;7.800;2024-03-08T13:31:36;23.80;80.00
2663;DHT22;49701;48.072;7.800;2024-03-08T13:34:01;23.40;81.10
2663;DHT22;49701;48.072;7.800;2024-03-08T13:36:27;23.30;81.30
2663;DHT22;49701;48.072;7.800;2024-03-08T13:39:04;23.40;82.50
2663;DHT22;49701;48.072;7.800;2024-03-08T13:41:43;23.30;81.60
2663;DHT22;49701;48.072;7.800;2024-03-08T13:44:10;23.40;81.60
2663;DHT22;49701;48.072;7.800;2024-03-08T13:46:35;23.40;81.40
2663;DHT22;49701;48.072;7.800;2024-03-08T13:49:05;23.40;81.20
2663;DHT22;49701;48.072;7.800;2024-03-08T13:51:33;23.40;81.60
2663;DHT22;49701;48.072;7.800;2024-03-08T13:53:59;23.30;81.50
2663;DHT22;49701;48.072;7.800;2024-03-08T13:56:26;23.10;81.80
2663;DHT22;49701;48.072;7.800;2024-03-08T13:58:51;23.00;82.30
2663;DHT22;49701;48.072;7.800;2024-03-08T14:01:17;22.80;82.60
2663;DHT22;49701;48.072;7.800;2024-03-08T14:03:42;22.90;82.80
2663;DHT22;49701;48.072;7.800;2024-03-08T14:06:08;23.00;82.30
2663;DHT22;49701;48.072;7.800;2024-03-08T14:08:35;23.00;81.80
2663;DHT22;49701;48.072;7.800;2024-03-08T14:11:04;23.00;81.40
2663;DHT22;49701;48.072;7.800;2024-03-08T14:13:43;22.80;81.90
2663;DHT22;49701;48.072;7.800;2024-03-08T14:16:13;22.60;82.60
2663;DHT22;49701;48.072;7.800;2024-03-08T14:18:38;22.50;83.10
2663;DHT22;49701;48.072;7.800;2024-03-08T14:21:04;22.50;83.10
2663;DHT22;49701;48.072;7.800;2024-03-08T14:23:30;22.40;83.50
2663;DHT22;49701;48.072;7.800;2024-03-08T14:25:56;22.50;83.50
2663;DHT22;49701;48.072;7.800;2024-03-08T14:28:21;22.40;83.20
2663;DHT22;49701;48.072;7.800;2024-03-08T14:30:48;22.00;84.00
2663;DHT22;49701;48.072;7.800;2024-03-08T14:33:14;21.70;84.80
2663;DHT22;49701;48.072;7.800;2024-03-08T14:35:40;21.50;85.60
2663;DHT22;49701;48.072;7.800;2024-03-08T14:38:06;21.50;85.20
2663;DHT22;49701;48.072;7.800;2024-03-08T14:40:36;21.30;85.60
2663;DHT22;49701;48.072;7.800;2024-03-08T14:43:02;21.10;86.10
2663;DHT22;49701;48.072;7.800;2024-03-08T14:45:27;20.90;86.90
2663;DHT22;49701;48.072;7.800;2024-03-08T14:47:53;20.70;87.30
2663;DHT22;49701;48.072;7.800;2024-03-08T14:50:20;20.70;87.60
2663;DHT22;49701;48.072;7.800;2024-03-08T14:52:48;20.40;88.30
2663;DHT22;49701;48.072;7.800;2024-03-08T14:55:14;20.10;89.00
2663;DHT22;49701;48.072;7.800;2024-03-08T14:57:43;19.60;90.00
2663;DHT22;49701;48.072;7.800;2024-03-08T15:00:14;19.00;90.60
2663;DHT22;49701;48.072;7.800;2024-03-08T15:02:55;18.50;91.50
2663;DHT22;49701;48.072;7.800;2024-03-08T15:05:21;18.00;92.10
2663;DHT22;49701;48.072;7.800;2024-03-08T15:07:52;17.80;92.60
2663;DHT22;49701;48.072;7.800;2024-03-08T15:10:17;17.60;93.00
2663;DHT22;49701;48.072;7.800;2024-03-08T15:12:46;17.50;93.40
2663;DHT22;49701;48.072;7.800;2024-03-08T15:15:14;17.70;93.40
2663;DHT22;49701;48.072;7.800;2024-03-08T15:17:43;17.70;93.50
2663;DHT22;49701;48.072;7.800;2024-03-08T15:20:10;17.60;93.70
2663;DHT22;49701;48.072;7.800;2024-03-08T15:22:46;17.50;93.90
2663;DHT22;49701;48.072;7.800;2024-03-08T15:25:12;17.30;94.20
2663;DHT22;49701;48.072;7.800;2024-03-08T15:27:42;17.00;94.70
2663;DHT22;49701;48.072;7.800;2024-03-08T15:30:08;16.80;95.10
2663;DHT22;49701;48.072;7.800;2024-03-08T15:32:44;16.40;95.60
2663;DHT22;49701;48.072;7.800;2024-03-08T15:35:11;16.20;96.20
2663;DHT22;49701;48.072;7.800;2024-03-08T15:37:42;16.00;96.50
2663;DHT22;49701;48.072;7.800;2024-03-08T15:40:11;15.80;97.00
2663;DHT22;49701;48.072;7.800;2024-03-08T15:42:54;15.80;97.20
2663;DHT22;49701;48.072;7.800;2024-03-08T15:45:20;15.90;97.30
2663;DHT22;49701;48.072;7.800;2024-03-08T15:47:46;16.10;97.60
2663;DHT22;49701;48.072;7.800;2024-03-08T15:50:12;16.20;97.00
2663;DHT22;49701;48.072;7.800;2024-03-08T15:52:38;16.40;97.00
2663;DHT22;49701;48.072;7.800;2024-03-08T15:55:07;16.50;97.00
2663;DHT22;49701;48.072;7.800;2024-03-08T15:57:33;16.80;96.70